Time;durP1;ratioP1;P1;durP2;ratioP2;P2;SDS_P1;SDS_P2;PMS_P1;PMS_P2;Temp;Humidity;BMP_temperature;BMP_pressure;BME280_temperature;BME280_humidity;BME280_pressure;Samples;Min_cycle;Max_cycle;Signal;HPM_P1;HPM_P2
2024/02/28 00:01:03;;;;;;;4.82;1.40;;;21.80;34.60;;;;;;5136514;27;20219;-64
2024/02/28 00:03:33;;;;;;;4.55;1.58;;;21.80;34.70;;;;;;5136173;27;20279;-65
2024/02/28 00:06:00;;;;;;;3.15;1.10;;;21.80;34.70;;;;;;5135883;27;20299;-64
2024/02/28 00:08:27;;;;;;;2.70;1.27;;;21.80;34.70;;;;;;5135857;27;20288;-64
2024/02/28 00:10:54;;;;;;;3.53;1.70;;;21.80;34.70;;;;;;5136133;27;20216;-64
2024/02/28 00:13:22;;;;;;;2.40;1.10;;;21.80;34.80;;;;;;5135180;27;20189;-64
2024/02/28 00:15:49;;;;;;;3.65;1.13;;;21.80;35.50;;;;;;5135931;27;20209;-65
2024/02/28 00:18:16;;;;;;;2.33;1.35;;;21.80;34.90;;;;;;5135784;27;20189;-64
2024/02/28 00:20:45;;;;;;;3.28;1.33;;;21.80;35.00;;;;;;5135583;27;20248;-65
2024/02/28 00:23:12;;;;;;;3.63;1.48;;;21.80;35.00;;;;;;5135451;27;20185;-64
2024/02/28 00:25:39;;;;;;;3.47;1.42;;;21.80;35.00;;;;;;5135820;27;20306;-64
2024/02/28 00:28:05;;;;;;;2.17;1.10;;;21.80;35.00;;;;;;5135633;27;20267;-64
2024/02/28 00:30:32;;;;;;;2.78;1.20;;;21.80;35.10;;;;;;5135498;27;20239;-64
2024/02/28 00:33:00;;;;;;;2.35;1.17;;;21.80;35.10;;;;;;5135583;27;20184;-64
2024/02/28 00:35:27;;;;;;;1.83;1.15;;;21.80;35.20;;;;;;5135202;27;20295;-64
2024/02/28 00:37:55;;;;;;;3.08;1.35;;;21.80;35.20;;;;;;5135559;27;20287;-64
2024/02/28 00:40:22;;;;;;;2.75;1.20;;;21.80;35.20;;;;;;5135287;27;20217;-64
2024/02/28 00:42:49;;;;;;;3.05;1.08;;;21.80;35.20;;;;;;5134983;27;20745;-63
2024/02/28 00:45:17;;;;;;;2.45;1.10;;;21.80;35.30;;;;;;5134438;27;20315;-64
2024/02/28 00:47:44;;;;;;;1.50;1.10;;;21.80;35.20;;;;;;5135131;27;20225;-64
2024/02/28 00:50:11;;;;;;;2.63;1.40;;;21.80;35.40;;;;;;5134536;27;20784;-64
2024/02/28 00:52:38;;;;;;;2.20;1.20;;;21.80;35.40;;;;;;5135159;27;20193;-64
2024/02/28 00:55:07;;;;;;;2.97;1.30;;;21.80;35.40;;;;;;5135029;27;20302;-64
2024/02/28 00:57:34;;;;;;;2.38;1.10;;;21.80;35.40;;;;;;5134932;27;20268;-64
2024/02/28 01:00:01;;;;;;;2.70;1.13;;;21.80;36.10;;;;;;5135020;27;20220;-64
2024/02/28 01:02:28;;;;;;;1.38;0.90;;;21.80;35.50;;;;;;5135149;27;20189;-64
2024/02/28 01:04:55;;;;;;;2.33;1.00;;;21.80;35.50;;;;;;5134863;27;20591;-65
2024/02/28 01:07:22;;;;;;;1.65;0.88;;;21.80;35.50;;;;;;5134978;27;20185;-64
2024/02/28 01:09:49;;;;;;;3.13;1.10;;;21.80;36.30;;;;;;5134769;27;20674;-64
2024/02/28 01:12:17;;;;;;;2.47;1.00;;;21.80;35.60;;;;;;5134615;27;20291;-63
2024/02/28 01:14:44;;;;;;;2.08;1.13;;;21.80;35.70;;;;;;5134302;27;20311;-64
2024/02/28 01:17:11;;;;;;;1.88;1.00;;;21.80;35.60;;;;;;5134846;27;20703;-64
2024/02/28 01:19:38;;;;;;;2.53;1.00;;;21.80;35.70;;;;;;5134303;27;20185;-65
2024/02/28 01:22:05;;;;;;;1.88;0.80;;;21.80;35.80;;;;;;5134761;27;20283;-64
2024/02/28 01:24:33;;;;;;;2.25;1.10;;;21.80;35.80;;;;;;5134304;27;20214;-64
2024/02/28 01:27:00;;;;;;;2.03;1.00;;;21.80;36.60;;;;;;5134452;27;20189;-64
2024/02/28 01:29:29;;;;;;;1.63;0.93;;;21.80;35.80;;;;;;5134054;27;20646;-63
2024/02/28 01:31:56;;;;;;;2.75;1.00;;;21.80;35.90;;;;;;5134641;27;20185;-64
2024/02/28 01:34:23;;;;;;;1.38;0.95;;;21.80;35.90;;;;;;5133584;27;20189;-65
2024/02/28 01:36:50;;;;;;;2.55;0.98;;;21.80;36.00;;;;;;5134493;27;20283;-64
2024/02/28 01:39:17;;;;;;;1.80;0.80;;;21.80;36.10;;;;;;5134085;27;20586;-65
2024/02/28 01:41:52;;;;;;;1.88;0.88;;;21.70;35.90;;;;;;5134004;27;20711;-64
2024/02/28 01:44:19;;;;;;;1.83;1.10;;;21.80;36.00;;;;;;5134201;27;20669;-64
2024/02/28 01:46:48;;;;;;;3.20;0.88;;;21.80;36.10;;;;;;5134302;27;20218;-64
2024/02/28 01:49:16;;;;;;;1.23;0.88;;;21.80;36.10;;;;;;5132015;27;20272;-64
2024/02/28 01:51:45;;;;;;;1.85;0.80;;;21.80;36.10;;;;;;5124998;27;20239;-64
2024/02/28 01:54:12;;;;;;;1.67;0.90;;;21.80;36.20;;;;;;5113141;28;20272;-64
2024/02/28 01:56:40;;;;;;;0.90;0.77;;;21.80;36.20;;;;;;5112938;28;20753;-64
2024/02/28 01:59:10;;;;;;;1.83;1.05;;;21.80;36.30;;;;;;5113277;28;20189;-65
2024/02/28 02:01:37;;;;;;;0.65;0.60;;;21.80;36.30;;;;;;5113674;28;20299;-64
2024/02/28 02:04:06;;;;;;;2.13;0.75;;;21.80;36.30;;;;;;5113064;28;20264;-64
2024/02/28 02:06:37;;;;;;;0.85;0.65;;;21.80;36.30;;;;;;5113473;28;20304;-64
2024/02/28 02:09:04;;;;;;;1.40;0.75;;;21.80;36.40;;;;;;5112736;28;20721;-64
2024/02/28 02:11:31;;;;;;;1.98;0.77;;;21.80;36.30;;;;;;5113091;28;20217;-64
2024/02/28 02:13:58;;;;;;;1.27;0.60;;;21.80;36.50;;;;;;5112884;28;20225;-64
2024/02/28 02:16:26;;;;;;;1.67;0.82;;;21.80;36.50;;;;;;5112871;28;20307;-64
2024/02/28 02:18:53;;;;;;;0.90;0.80;;;21.80;36.60;;;;;;5112536;28;20201;-64
2024/02/28 02:21:24;;;;;;;0.85;0.55;;;21.80;36.60;;;;;;5112838;28;20690;-65
2024/02/28 02:23:52;;;;;;;0.85;0.70;;;21.80;36.60;;;;;;5113123;28;20192;-64
2024/02/28 02:26:19;;;;;;;0.98;0.77;;;21.80;36.60;;;;;;5112861;28;20229;-64
2024/02/28 02:28:46;;;;;;;1.20;0.70;;;21.80;36.60;;;;;;5112786;28;20186;-64
2024/02/28 02:31:14;;;;;;;1.05;0.60;;;21.80;36.60;;;;;;5112728;28;20281;-64
2024/02/28 02:33:41;;;;;;;0.95;0.73;;;21.80;36.70;;;;;;5112526;28;20271;-64
2024/02/28 02:36:08;;;;;;;1.00;0.60;;;21.80;36.60;;;;;;5112347;28;20219;-64
2024/02/28 02:38:35;;;;;;;0.82;0.60;;;21.80;36.70;;;;;;5112312;28;20718;-64
2024/02/28 02:41:04;;;;;;;0.80;0.70;;;21.80;36.80;;;;;;5112794;28;20224;-64
2024/02/28 02:43:31;;;;;;;1.38;0.70;;;21.80;36.80;;;;;;5112806;28;20197;-64
2024/02/28 02:45:57;;;;;;;0.95;0.63;;;21.80;36.80;;;;;;5112630;28;20232;-64
2024/02/28 02:48:24;;;;;;;1.77;0.90;;;21.80;36.80;;;;;;5112558;28;20229;-64
2024/02/28 02:50:51;;;;;;;2.83;1.13;;;21.80;36.90;;;;;;5112286;28;20699;-64
2024/02/28 02:53:18;;;;;;;0.70;0.70;;;21.80;36.90;;;;;;5112517;28;20618;-65
2024/02/28 02:55:45;;;;;;;2.08;0.80;;;21.80;37.00;;;;;;5112281;28;20213;-64
2024/02/28 02:58:14;;;;;;;1.48;0.80;;;21.80;36.90;;;;;;5112561;28;20195;-64
2024/02/28 03:00:41;;;;;;;2.17;0.80;;;21.80;36.90;;;;;;5112472;28;20219;-64
2024/02/28 03:03:08;;;;;;;1.65;1.00;;;21.80;37.00;;;;;;5112490;28;20276;-64
2024/02/28 03:05:35;;;;;;;1.83;0.77;;;21.80;37.00;;;;;;5112161;28;20274;-64
2024/02/28 03:08:02;;;;;;;2.10;1.02;;;21.80;37.10;;;;;;5112221;28;20563;-64
2024/02/28 03:10:29;;;;;;;1.70;0.80;;;21.80;37.10;;;;;;5115487;28;20212;-64
2024/02/28 03:12:56;;;;;;;1.20;0.70;;;21.80;37.10;;;;;;5116302;28;20682;-64
2024/02/28 03:15:24;;;;;;;1.38;0.70;;;21.80;37.10;;;;;;5115993;28;20232;-64
2024/02/28 03:17:51;;;;;;;1.42;0.90;;;21.80;37.20;;;;;;5116665;28;20280;-64
2024/02/28 03:20:18;;;;;;;2.15;0.93;;;21.80;37.20;;;;;;5116221;28;20215;-64
2024/02/28 03:22:45;;;;;;;1.35;0.80;;;21.80;37.20;;;;;;5133776;27;20287;-64
2024/02/28 03:25:12;;;;;;;1.65;1.00;;;21.80;37.20;;;;;;5136598;27;20607;-64
2024/02/28 03:27:39;;;;;;;1.45;0.80;;;21.80;37.20;;;;;;5136889;27;20267;-65
2024/02/28 03:30:07;;;;;;;0.93;0.60;;;21.70;37.20;;;;;;5136538;27;20303;-64
2024/02/28 03:32:35;;;;;;;1.35;0.80;;;21.80;37.30;;;;;;5136735;27;20188;-64
2024/02/28 03:35:04;;;;;;;1.83;0.70;;;21.80;37.30;;;;;;5136546;27;20212;-64
2024/02/28 03:37:31;;;;;;;1.35;0.75;;;21.80;37.30;;;;;;5136702;27;20220;-64
2024/02/28 03:39:58;;;;;;;1.08;0.70;;;21.80;37.40;;;;;;5136312;27;20221;-64
2024/02/28 03:42:25;;;;;;;1.60;0.80;;;21.80;37.40;;;;;;5136637;27;20280;-64
2024/02/28 03:44:52;;;;;;;1.10;0.57;;;21.80;37.40;;;;;;5136580;27;20180;-64
2024/02/28 03:47:18;;;;;;;1.90;0.95;;;21.80;37.40;;;;;;5136127;27;20670;-64
2024/02/28 03:49:47;;;;;;;2.28;1.25;;;21.80;37.50;;;;;;5136277;27;20267;-65
2024/02/28 03:52:13;;;;;;;0.98;0.73;;;21.80;37.50;;;;;;5136546;27;20185;-64
2024/02/28 03:54:43;;;;;;;1.48;1.00;;;21.80;37.50;;;;;;5135924;27;20555;-64
2024/02/28 03:57:11;;;;;;;0.90;0.80;;;21.70;37.50;;;;;;5136297;27;20195;-65
2024/02/28 03:59:37;;;;;;;1.83;1.00;;;21.70;37.50;;;;;;5136095;27;20224;-64
2024/02/28 04:02:05;;;;;;;0.80;0.80;;;21.80;37.60;;;;;;5136079;27;20231;-64
2024/02/28 04:04:32;;;;;;;1.80;0.80;;;21.80;37.70;;;;;;5136425;27;20263;-64
2024/02/28 04:07:00;;;;;;;4.18;1.05;;;21.80;37.80;;;;;;5135943;27;20602;-64
2024/02/28 04:09:27;;;;;;;1.20;0.98;;;21.80;37.80;;;;;;5135601;27;20224;-64
2024/02/28 04:11:55;;;;;;;1.73;0.77;;;21.70;37.80;;;;;;5136426;27;20222;-64
2024/02/28 04:14:22;;;;;;;1.15;0.60;;;21.80;37.90;;;;;;5145636;27;20223;-64
2024/02/28 04:16:50;;;;;;;1.05;0.95;;;21.80;37.90;;;;;;5156528;27;20218;-64
2024/02/28 04:19:17;;;;;;;2.13;0.60;;;21.80;37.90;;;;;;5156453;27;20212;-64
2024/02/28 04:21:44;;;;;;;1.40;0.80;;;21.80;37.90;;;;;;5155410;27;20628;-64
2024/02/28 04:24:12;;;;;;;1.23;0.70;;;21.80;37.90;;;;;;5156448;27;20267;-64
2024/02/28 04:26:39;;;;;;;1.48;0.80;;;21.80;37.90;;;;;;5156499;27;20227;-64
2024/02/28 04:29:07;;;;;;;1.00;0.90;;;21.70;37.90;;;;;;5156297;27;20266;-64
2024/02/28 04:31:34;;;;;;;0.85;0.70;;;21.80;37.90;;;;;;5155957;27;20601;-64
2024/02/28 04:34:01;;;;;;;0.65;0.63;;;21.80;37.90;;;;;;5156358;27;20184;-64
2024/02/28 04:36:28;;;;;;;0.98;0.80;;;21.80;37.90;;;;;;5156286;27;20215;-64
2024/02/28 04:38:55;;;;;;;1.13;0.80;;;21.80;37.90;;;;;;5155598;27;20582;-64
2024/02/28 04:41:23;;;;;;;1.00;0.70;;;21.80;37.90;;;;;;5156339;27;20266;-64
2024/02/28 04:43:50;;;;;;;1.27;0.63;;;21.80;37.90;;;;;;5156200;27;20180;-64
2024/02/28 04:46:17;;;;;;;1.85;0.60;;;21.80;37.90;;;;;;5155545;27;20710;-64
2024/02/28 04:48:44;;;;;;;1.20;0.70;;;21.80;37.90;;;;;;5156032;27;20202;-64
2024/02/28 04:51:11;;;;;;;1.83;0.77;;;21.80;37.90;;;;;;5155823;27;20583;-64
2024/02/28 04:53:40;;;;;;;1.17;0.85;;;21.80;37.90;;;;;;5155500;27;20241;-64
2024/02/28 04:56:07;;;;;;;1.63;0.90;;;21.80;37.90;;;;;;5155728;27;20257;-64
2024/02/28 04:58:36;;;;;;;1.88;0.82;;;21.80;37.90;;;;;;5155756;27;20198;-64
2024/02/28 05:01:04;;;;;;;0.50;0.50;;;21.80;37.90;;;;;;5155862;27;20306;-64
2024/02/28 05:03:31;;;;;;;1.00;0.70;;;21.80;37.90;;;;;;5155973;27;20911;-64
2024/02/28 05:05:57;;;;;;;1.02;0.68;;;21.80;37.90;;;;;;5155770;27;20590;-64
2024/02/28 05:08:27;;;;;;;1.45;0.80;;;21.80;37.90;;;;;;5155532;27;20196;-65
2024/02/28 05:10:54;;;;;;;0.80;0.60;;;21.80;37.90;;;;;;5155454;27;20264;-64
2024/02/28 05:13:22;;;;;;;1.05;0.70;;;21.80;37.90;;;;;;5155341;27;20183;-64
2024/02/28 05:15:50;;;;;;;1.50;0.80;;;21.80;37.90;;;;;;5154954;27;20595;-64
2024/02/28 05:18:17;;;;;;;1.15;0.90;;;21.80;37.90;;;;;;5155787;27;20196;-64
2024/02/28 05:20:45;;;;;;;1.30;0.73;;;21.80;37.90;;;;;;5155396;27;20302;-65
2024/02/28 05:23:11;;;;;;;0.98;0.60;;;21.80;38.00;;;;;;5155360;27;20183;-64
2024/02/28 05:25:39;;;;;;;1.30;0.77;;;21.80;38.10;;;;;;5155137;27;20699;-64
2024/02/28 05:28:06;;;;;;;1.02;0.60;;;21.80;38.00;;;;;;5155394;27;20270;-64
2024/02/28 05:30:33;;;;;;;1.17;0.80;;;21.80;38.10;;;;;;5154976;27;20302;-65
2024/02/28 05:33:01;;;;;;;0.80;0.50;;;21.80;38.20;;;;;;5154543;27;20665;-65
2024/02/28 05:35:28;;;;;;;1.25;0.80;;;21.70;38.10;;;;;;5154792;27;20211;-64
2024/02/28 05:37:55;;;;;;;1.88;0.70;;;21.80;39.00;;;;;;5154599;27;20558;-64
2024/02/28 05:40:22;;;;;;;1.10;0.70;;;21.80;38.20;;;;;;5154879;27;20215;-64
2024/02/28 05:42:49;;;;;;;1.48;0.80;;;21.80;38.30;;;;;;5154850;27;20184;-64
2024/02/28 05:45:16;;;;;;;1.50;0.80;;;21.80;38.30;;;;;;5154609;27;20299;-64
2024/02/28 05:47:43;;;;;;;0.95;0.70;;;21.80;38.30;;;;;;5155007;27;20647;-64
2024/02/28 05:50:12;;;;;;;1.83;0.82;;;21.70;38.30;;;;;;5154645;27;20288;-64
2024/02/28 05:52:42;;;;;;;0.95;0.70;;;21.80;38.40;;;;;;5155069;27;20194;-64
2024/02/28 05:55:09;;;;;;;1.10;0.70;;;21.80;38.40;;;;;;5154546;27;20263;-63
2024/02/28 05:57:36;;;;;;;0.82;0.73;;;21.80;38.40;;;;;;5154353;27;20278;-64
2024/02/28 06:00:09;;;;;;;1.00;0.80;;;21.70;38.40;;;;;;5154399;27;20188;-64
2024/02/28 06:02:37;;;;;;;1.00;0.80;;;21.80;38.50;;;;;;5154797;27;20184;-64
2024/02/28 06:05:04;;;;;;;1.08;0.70;;;21.80;38.50;;;;;;5154623;27;20191;-64
2024/02/28 06:07:32;;;;;;;1.52;0.90;;;21.80;38.50;;;;;;5154246;27;20684;-64
2024/02/28 06:09:59;;;;;;;1.05;0.70;;;21.80;38.50;;;;;;5154299;27;20188;-64
2024/02/28 06:12:26;;;;;;;0.70;0.70;;;21.80;38.50;;;;;;5154259;27;20566;-64
2024/02/28 06:14:53;;;;;;;0.98;0.60;;;21.80;38.50;;;;;;5153858;27;20227;-64
2024/02/28 06:17:21;;;;;;;1.00;0.80;;;21.80;38.50;;;;;;5154457;27;20196;-64
2024/02/28 06:19:48;;;;;;;1.02;0.60;;;21.80;38.50;;;;;;5153707;27;20190;-64
2024/02/28 06:22:15;;;;;;;1.75;0.88;;;21.80;38.60;;;;;;5154157;27;20306;-64
2024/02/28 06:24:43;;;;;;;1.15;0.70;;;21.70;38.50;;;;;;5154412;27;20270;-64
2024/02/28 06:27:13;;;;;;;2.08;0.70;;;21.70;38.50;;;;;;5154634;27;20234;-65
2024/02/28 06:29:40;;;;;;;1.40;0.73;;;21.80;38.60;;;;;;5153730;27;20187;-64
2024/02/28 06:32:07;;;;;;;1.45;0.73;;;21.80;38.70;;;;;;5154232;27;20211;-64
2024/02/28 06:34:34;;;;;;;1.15;0.80;;;21.80;38.60;;;;;;5153929;27;20190;-64
2024/02/28 06:37:01;;;;;;;1.45;0.80;;;21.80;38.70;;;;;;5153599;27;20207;-64
2024/02/28 06:39:28;;;;;;;1.42;0.93;;;21.80;38.70;;;;;;5153265;27;20599;-64
2024/02/28 06:41:56;;;;;;;1.52;0.90;;;21.70;38.60;;;;;;5153857;27;20712;-64
2024/02/28 06:44:23;;;;;;;1.15;0.68;;;21.80;38.70;;;;;;5152624;27;20179;-64
2024/02/28 06:46:49;;;;;;;2.22;1.00;;;21.80;38.70;;;;;;5153905;27;20322;-64
2024/02/28 06:49:16;;;;;;;1.85;0.90;;;21.80;38.70;;;;;;5153574;27;20184;-64
2024/02/28 06:51:44;;;;;;;0.80;0.77;;;21.80;38.80;;;;;;5153520;27;20216;-64
2024/02/28 06:54:11;;;;;;;1.40;0.80;;;21.80;38.70;;;;;;5153523;27;20187;-64
2024/02/28 06:56:38;;;;;;;1.52;0.80;;;21.80;38.70;;;;;;5153899;27;20299;-64
2024/02/28 06:59:07;;;;;;;1.02;0.63;;;21.80;38.80;;;;;;5153123;27;20184;-64
2024/02/28 07:01:34;;;;;;;1.98;0.80;;;21.80;38.80;;;;;;5153403;27;20581;-64
2024/02/28 07:04:01;;;;;;;1.52;0.70;;;21.80;38.80;;;;;;5153630;27;20211;-65
2024/02/28 07:06:27;;;;;;;1.63;0.77;;;21.80;38.80;;;;;;5153379;27;20275;-63
2024/02/28 07:08:54;;;;;;;0.70;0.65;;;21.80;38.70;;;;;;5153109;27;20716;-65
2024/02/28 07:11:21;;;;;;;2.00;0.70;;;21.80;38.80;;;;;;5153325;27;20283;-64
2024/02/28 07:13:48;;;;;;;1.20;0.77;;;21.80;38.80;;;;;;5153034;27;20696;-65
2024/02/28 07:16:16;;;;;;;2.35;0.70;;;21.80;38.80;;;;;;5153094;27;20199;-64
2024/02/28 07:18:43;;;;;;;1.50;0.60;;;21.80;38.80;;;;;;5153232;27;20211;-64
2024/02/28 07:21:10;;;;;;;1.52;0.80;;;21.80;39.60;;;;;;5153331;27;20744;-64
2024/02/28 07:23:40;;;;;;;1.30;0.60;;;21.80;38.90;;;;;;5153087;27;20243;-64
2024/02/28 07:26:07;;;;;;;1.60;0.70;;;21.80;38.90;;;;;;5153421;27;20296;-64
2024/02/28 07:28:34;;;;;;;1.90;0.70;;;21.80;38.90;;;;;;5153048;27;20696;-63
2024/02/28 07:31:01;;;;;;;1.98;0.80;;;21.80;38.90;;;;;;5153240;27;20190;-65
2024/02/28 07:33:29;;;;;;;2.15;0.70;;;21.80;38.90;;;;;;5153168;27;20726;-65
2024/02/28 07:36:00;;;;;;;1.25;0.70;;;21.80;38.90;;;;;;5153212;27;20190;-65
2024/02/28 07:38:28;;;;;;;1.63;0.80;;;21.80;39.00;;;;;;5153165;27;20212;-64
2024/02/28 07:40:55;;;;;;;1.25;0.63;;;21.70;38.90;;;;;;5153290;27;20199;-64
2024/02/28 07:43:22;;;;;;;1.60;0.93;;;21.80;39.00;;;;;;5153107;27;20581;-64
2024/02/28 07:45:49;;;;;;;1.00;0.70;;;21.70;39.00;;;;;;5153354;27;20188;-65
2024/02/28 07:48:17;;;;;;;1.17;0.80;;;21.70;38.90;;;;;;5153182;27;20231;-65
2024/02/28 07:50:45;;;;;;;2.42;0.73;;;21.80;39.10;;;;;;5153161;27;20188;-63
2024/02/28 07:53:13;;;;;;;1.95;0.82;;;21.80;39.00;;;;;;5153193;27;20300;-64
2024/02/28 07:55:40;;;;;;;1.27;0.70;;;21.80;39.00;;;;;;5154551;27;20191;-64
2024/02/28 07:58:07;;;;;;;2.45;0.80;;;21.70;39.00;;;;;;5156936;27;20286;-64
2024/02/28 08:00:34;;;;;;;0.93;0.60;;;21.70;39.00;;;;;;5156375;27;20223;-65
2024/02/28 08:03:01;;;;;;;1.23;0.60;;;21.70;39.00;;;;;;5157096;27;20188;-64
2024/02/28 08:05:28;;;;;;;0.90;0.60;;;21.70;39.00;;;;;;5156518;27;20194;-66
2024/02/28 08:07:56;;;;;;;1.10;0.70;;;21.70;39.00;;;;;;5156477;27;20357;-65
2024/02/28 08:10:23;;;;;;;1.23;0.70;;;21.80;39.20;;;;;;5156640;27;20184;-65
2024/02/28 08:12:50;;;;;;;1.48;0.80;;;21.80;39.30;;;;;;5151325;27;20265;-64
2024/02/28 08:15:17;;;;;;;1.83;0.75;;;21.90;39.30;;;;;;5105571;27;20290;-65
2024/02/28 08:17:44;;;;;;;1.02;0.80;;;21.90;39.30;;;;;;5109424;28;20283;-65
2024/02/28 08:20:11;;;;;;;1.63;0.90;;;21.90;39.30;;;;;;5115455;27;20217;-65
2024/02/28 08:22:38;;;;;;;2.92;0.90;;;22.00;39.40;;;;;;5114365;28;20201;-65
2024/02/28 08:25:11;;;;;;;8.82;0.80;;;21.90;39.30;;;;;;5113742;27;20221;-65
2024/02/28 08:27:38;;;;;;;1.48;0.60;;;21.90;39.30;;;;;;5114109;28;20217;-65
2024/02/28 08:30:06;;;;;;;3.90;0.90;;;22.00;39.30;;;;;;5113184;28;20225;-65
2024/02/28 08:32:33;;;;;;;3.45;0.90;;;22.00;39.30;;;;;;5113884;28;20197;-64
2024/02/28 08:35:01;;;;;;;2.65;1.00;;;22.00;39.30;;;;;;5103715;28;20217;-64
2024/02/28 08:37:28;;;;;;;1.55;0.80;;;22.00;39.30;;;;;;5097728;28;20197;-64
2024/02/28 08:39:57;;;;;;;1.25;0.90;;;22.00;39.30;;;;;;5108514;28;20217;-64
2024/02/28 08:42:33;;;;;;;2.03;1.00;;;22.10;39.40;;;;;;5104023;28;20185;-64
2024/02/28 08:45:00;;;;;;;1.17;0.82;;;22.10;39.40;;;;;;5099779;27;20320;-64
2024/02/28 08:47:30;;;;;;;2.70;0.80;;;22.10;39.30;;;;;;5103352;28;20292;-64
2024/02/28 08:50:07;;;;;;;1.75;0.90;;;22.10;39.30;;;;;;5105993;27;20221;-63
2024/02/28 08:55:19;;;;;;;2.08;1.08;;;22.20;39.30;;;;;;5058891;27;20851;-64
2024/02/28 08:57:53;;;;;;;1.95;0.80;;;22.10;39.20;;;;;;5070471;28;20593;-63
2024/02/28 09:00:22;;;;;;;3.08;1.17;;;22.10;39.20;;;;;;5056831;28;20215;-63
2024/02/28 09:02:52;;;;;;;2.30;1.13;;;22.20;39.30;;;;;;5104670;28;20189;-64
2024/02/28 09:05:21;;;;;;;2.35;0.80;;;22.20;39.20;;;;;;5111810;27;20299;-64
2024/02/28 09:07:54;;;;;;;3.42;0.80;;;22.20;39.20;;;;;;5106412;28;20213;-64
2024/02/28 09:10:24;;;;;;;2.70;1.02;;;22.20;39.20;;;;;;5106271;28;20296;-64
2024/02/28 09:12:53;;;;;;;3.40;1.00;;;22.30;39.80;;;;;;5105317;28;20506;-65
2024/02/28 09:15:21;;;;;;;4.72;1.02;;;22.30;39.30;;;;;;5108747;27;20938;-65
2024/02/28 09:17:48;;;;;;;1.35;0.88;;;22.30;39.00;;;;;;5117971;27;20323;-63
2024/02/28 09:20:15;;;;;;;2.35;0.85;;;22.30;39.00;;;;;;5089349;27;20698;-64
2024/02/28 09:22:42;;;;;;;4.55;1.10;;;22.30;39.00;;;;;;5126015;27;20282;-65
2024/02/28 09:25:09;;;;;;;2.10;1.20;;;22.30;39.20;;;;;;5125597;27;20220;-65
2024/02/28 09:27:36;;;;;;;4.25;1.40;;;22.40;39.40;;;;;;5127622;27;20212;-61
2024/02/28 09:30:06;;;;;;;1.90;0.80;;;22.30;39.50;;;;;;5129080;27;20283;-63
2024/02/28 09:32:33;;;;;;;2.35;1.00;;;22.30;39.50;;;;;;5130818;27;20185;-65
2024/02/28 09:35:00;;;;;;;4.60;1.15;;;22.30;39.70;;;;;;5129814;27;20305;-65
2024/02/28 09:37:28;;;;;;;4.22;1.10;;;22.30;39.80;;;;;;5124971;27;20584;-67
2024/02/28 09:39:55;;;;;;;4.03;1.20;;;22.30;39.80;;;;;;5131453;27;20220;-66
2024/02/28 09:42:22;;;;;;;2.53;1.20;;;22.30;39.80;;;;;;5129093;27;20197;-66
2024/02/28 09:44:49;;;;;;;2.50;1.15;;;22.30;39.80;;;;;;5128580;27;20220;-66
2024/02/28 09:47:21;;;;;;;2.78;0.98;;;22.30;39.80;;;;;;5130885;27;20327;-66
2024/02/28 09:49:52;;;;;;;2.20;0.90;;;22.30;39.80;;;;;;5130810;27;20337;-66
2024/02/28 09:52:20;;;;;;;2.40;1.00;;;22.30;39.80;;;;;;5131982;27;20283;-65
2024/02/28 09:54:46;;;;;;;2.42;1.30;;;22.30;39.80;;;;;;5131940;27;20208;-66
2024/02/28 09:57:14;;;;;;;5.80;1.15;;;22.30;39.80;;;;;;5132112;27;20180;-69
2024/02/28 09:59:42;;;;;;;3.72;1.08;;;22.40;39.90;;;;;;5132129;27;20213;-65
2024/02/28 10:02:11;;;;;;;2.35;1.15;;;22.40;39.90;;;;;;5126764;27;20295;-63
2024/02/28 10:04:40;;;;;;;1.35;1.02;;;22.40;39.90;;;;;;5125903;27;20186;-64
2024/02/28 10:07:14;;;;;;;1.60;0.80;;;22.40;39.90;;;;;;5143473;27;20288;-66
2024/02/28 10:09:41;;;;;;;4.43;1.10;;;22.40;39.90;;;;;;5116310;27;20201;-66
2024/02/28 10:12:08;;;;;;;3.55;1.10;;;22.40;39.90;;;;;;5120755;27;20215;-62
2024/02/28 10:14:36;;;;;;;3.75;1.15;;;22.40;39.90;;;;;;5126766;27;20232;-66
2024/02/28 10:17:04;;;;;;;3.80;0.98;;;22.40;39.90;;;;;;5013564;27;20200;-66
2024/02/28 10:19:32;;;;;;;5.30;0.90;;;22.40;39.90;;;;;;5097075;27;20286;-65
2024/02/28 10:22:01;;;;;;;2.17;0.90;;;22.40;40.00;;;;;;5126536;27;20217;-65
2024/02/28 10:24:29;;;;;;;3.38;1.20;;;22.40;40.00;;;;;;5130826;27;20207;-66
2024/02/28 10:26:56;;;;;;;5.28;1.30;;;22.40;40.00;;;;;;5131510;27;20838;-66
2024/02/28 10:29:23;;;;;;;1.92;1.00;;;22.40;39.90;;;;;;5130596;27;20600;-66
2024/02/28 10:31:50;;;;;;;4.60;1.27;;;22.40;39.90;;;;;;5131390;27;20226;-66
2024/02/28 10:34:18;;;;;;;2.20;1.10;;;22.50;40.00;;;;;;5131100;27;20728;-66
2024/02/28 10:36:46;;;;;;;2.70;0.82;;;22.50;40.00;;;;;;5132266;27;20222;-65
2024/02/28 10:39:15;;;;;;;1.73;1.00;;;22.50;39.90;;;;;;5131990;27;20188;-66
2024/02/28 10:41:43;;;;;;;1.40;0.90;;;22.50;39.90;;;;;;5131822;27;20299;-65
2024/02/28 10:44:11;;;;;;;3.05;1.13;;;22.50;39.90;;;;;;5130868;27;20564;-66
2024/02/28 10:46:39;;;;;;;4.30;1.00;;;22.50;39.90;;;;;;5132199;27;20220;-67
2024/02/28 10:49:07;;;;;;;3.03;1.20;;;22.50;39.90;;;;;;5130839;27;20220;-63
2024/02/28 10:51:36;;;;;;;1.85;1.00;;;22.50;39.90;;;;;;5131666;27;20220;-66
2024/02/28 10:54:11;;;;;;;3.13;1.10;;;22.50;39.90;;;;;;5130986;27;20208;-66
2024/02/28 10:56:40;;;;;;;5.07;1.17;;;22.50;39.90;;;;;;5131620;27;20215;-66
2024/02/28 10:59:08;;;;;;;1.98;1.02;;;22.60;39.90;;;;;;5131643;27;20234;-66
2024/02/28 11:01:36;;;;;;;5.90;1.10;;;22.50;39.80;;;;;;5119181;27;20780;-66
2024/02/28 11:04:05;;;;;;;1.42;0.80;;;22.50;39.80;;;;;;5112590;28;20203;-67
2024/02/28 11:06:32;;;;;;;2.08;0.90;;;22.50;39.70;;;;;;5120405;28;20219;-66
2024/02/28 11:09:01;;;;;;;3.75;0.85;;;22.50;39.80;;;;;;5131365;28;20696;-66
2024/02/28 11:11:32;;;;;;;1.17;0.80;;;22.50;39.80;;;;;;5131247;28;20220;-66
2024/02/28 11:14:01;;;;;;;2.90;1.17;;;22.50;39.90;;;;;;5131317;28;20314;-65
2024/02/28 11:16:29;;;;;;;1.48;0.70;;;22.40;39.80;;;;;;5131136;28;20227;-66
2024/02/28 11:18:56;;;;;;;2.15;0.80;;;22.40;39.90;;;;;;5131292;28;20283;-66
2024/02/28 11:21:26;;;;;;;1.33;0.88;;;22.40;40.00;;;;;;5130347;28;20236;-65
2024/02/28 11:23:57;;;;;;;1.05;0.73;;;22.40;40.00;;;;;;5131050;28;20283;-66
2024/02/28 11:26:25;;;;;;;2.63;0.95;;;22.40;40.00;;;;;;5131138;28;20976;-63
2024/02/28 11:28:52;;;;;;;1.42;0.68;;;22.30;40.00;;;;;;5131160;28;20237;-66
2024/02/28 11:31:20;;;;;;;1.30;1.00;;;22.30;40.00;;;;;;5133332;27;20588;-65
2024/02/28 11:33:47;;;;;;;1.33;0.88;;;22.30;40.00;;;;;;5135444;27;20190;-65
2024/02/28 11:36:15;;;;;;;2.03;0.90;;;22.30;40.10;;;;;;5134692;27;20227;-63
2024/02/28 11:38:42;;;;;;;2.88;1.00;;;22.30;40.00;;;;;;5135320;27;20602;-66
2024/02/28 11:41:09;;;;;;;1.65;0.85;;;22.30;40.00;;;;;;5135636;27;20220;-65
2024/02/28 11:43:36;;;;;;;1.30;0.75;;;22.30;40.00;;;;;;5135143;27;20670;-66
2024/02/28 11:46:09;;;;;;;2.17;0.80;;;22.30;40.00;;;;;;5135274;27;20189;-65
2024/02/28 11:48:38;;;;;;;1.58;0.80;;;22.30;40.10;;;;;;5134917;27;20216;-65
2024/02/28 11:51:05;;;;;;;1.77;0.88;;;22.30;40.10;;;;;;5134918;27;20713;-66
2024/02/28 11:53:32;;;;;;;1.90;0.75;;;22.30;40.10;;;;;;5135553;27;20291;-66
2024/02/28 11:55:59;;;;;;;1.67;0.90;;;22.30;40.10;;;;;;5134436;27;20725;-66
2024/02/28 11:58:26;;;;;;;1.75;0.70;;;22.30;40.10;;;;;;5134827;27;20310;-65
2024/02/28 12:00:54;;;;;;;1.33;1.00;;;22.30;40.10;;;;;;5134691;27;20193;-64
2024/02/28 12:03:24;;;;;;;1.77;0.80;;;22.30;40.10;;;;;;5134766;27;20216;-66
2024/02/28 12:05:53;;;;;;;1.38;0.68;;;22.30;40.10;;;;;;5134961;27;20280;-65
2024/02/28 12:08:21;;;;;;;1.20;0.70;;;22.30;40.10;;;;;;5134089;27;20236;-65
2024/02/28 12:10:48;;;;;;;1.67;1.00;;;22.30;40.10;;;;;;5133965;27;20631;-66
2024/02/28 12:13:18;;;;;;;0.65;0.65;;;22.30;40.10;;;;;;5134612;27;20659;-67
2024/02/28 12:15:45;;;;;;;1.73;0.50;;;22.30;40.20;;;;;;5134838;27;20268;-65
2024/02/28 12:18:12;;;;;;;0.50;0.50;;;22.30;40.10;;;;;;5134669;27;20212;-66
2024/02/28 12:20:39;;;;;;;1.25;0.70;;;22.30;40.20;;;;;;5134659;27;20193;-67
2024/02/28 12:23:08;;;;;;;1.48;0.70;;;22.30;40.20;;;;;;5134655;27;20607;-66
2024/02/28 12:25:36;;;;;;;1.60;0.98;;;22.30;40.20;;;;;;5134144;27;20200;-66
2024/02/28 12:28:05;;;;;;;1.95;0.80;;;22.30;40.30;;;;;;5134135;27;20331;-67
2024/02/28 12:30:32;;;;;;;2.15;0.68;;;22.30;40.30;;;;;;5134207;27;20564;-65
2024/02/28 12:33:00;;;;;;;1.25;0.60;;;22.30;40.30;;;;;;5133907;27;20595;-65
2024/02/28 12:35:27;;;;;;;1.35;0.70;;;22.30;40.40;;;;;;5133439;27;20189;-66
2024/02/28 12:37:54;;;;;;;1.42;0.82;;;22.30;40.40;;;;;;5133879;27;20252;-66
2024/02/28 12:40:22;;;;;;;1.15;0.70;;;22.40;40.40;;;;;;5133952;27;20188;-67
2024/02/28 12:42:49;;;;;;;1.77;0.88;;;22.40;40.40;;;;;;5132412;27;20221;-66
2024/02/28 12:45:16;;;;;;;1.88;0.70;;;22.40;40.50;;;;;;5133513;27;20192;-68
2024/02/28 12:47:42;;;;;;;1.88;0.90;;;22.40;40.50;;;;;;5133702;27;20305;-67
2024/02/28 12:50:10;;;;;;;2.33;0.80;;;22.40;40.50;;;;;;5133922;27;20196;-66
2024/02/28 12:52:38;;;;;;;1.98;0.80;;;22.40;40.60;;;;;;5134089;27;20208;-66